TimeCST,TemperatureF,Dew PointF,Humidity,Sea Level PressureIn,VisibilityMPH,Wind Direction,Wind SpeedMPH,Gust SpeedMPH,PrecipitationIn,Events,Conditions,WindDirDegrees,DateUTC
12:18 AM,44.6,42.8,93,29.56,4.0,SE,9.2,-,0.07,Rain,Rain,130,2012-12-15 06:18:00
12:39 AM,44.6,42.8,93,29.53,5.0,SE,10.4,-,0.13,Rain,Rain,130,2012-12-15 06:39:00
12:54 AM,44.1,42.1,93,29.52,3.0,SE,11.5,-,0.20,Rain,Rain,140,2012-12-15 06:54:00
1:52 AM,44.6,42.8,93,29.49,7.0,SSE,15.0,23.0,0.11,Rain,Light Rain,150,2012-12-15 07:52:00
1:54 AM,44.1,42.1,93,29.49,6.0,SSE,15.0,23.0,0.11,Rain,Light Rain,160,2012-12-15 07:54:00
2:27 AM,42.8,42.8,100,29.47,6.0,SSE,12.7,-,0.03,Rain,Light Rain,150,2012-12-15 08:27:00
2:54 AM,44.1,42.1,93,29.45,6.0,SSE,17.3,24.2,0.05,Rain,Light Rain,150,2012-12-15 08:54:00
3:54 AM,44.1,43.0,96,29.43,4.0,SSE,13.8,-,0.08,Rain,Rain,150,2012-12-15 09:54:00
4:44 AM,44.6,42.8,93,29.41,4.0,SSE,10.4,-,0.11,Rain,Light Rain,160,2012-12-15 10:44:00
4:52 AM,44.6,42.8,93,29.41,4.0,SSE,11.5,-,0.12,Rain,Light Rain,160,2012-12-15 10:52:00
4:54 AM,45.0,43.0,93,29.42,4.0,SSE,9.2,-,0.13,Rain,Rain,160,2012-12-15 10:54:00
5:02 AM,44.6,42.8,93,29.41,4.0,SSE,11.5,-,0.01,Rain,Light Rain,160,2012-12-15 11:02:00
5:09 AM,44.6,42.8,93,29.41,4.0,SSE,11.5,-,0.02,Rain,Light Rain,160,2012-12-15 11:09:00
5:36 AM,44.6,44.6,100,29.43,4.0,NNW,4.6,-,0.04,Rain,Light Rain,340,2012-12-15 11:36:00
5:54 AM,45.0,43.0,93,29.44,4.0,West,4.6,-,0.07,Rain,Rain,280,2012-12-15 11:54:00
6:13 AM,44.6,42.8,93,29.44,5.0,WNW,5.8,-,0.02,Rain,Light Rain,290,2012-12-15 12:13:00
6:54 AM,44.1,43.0,96,29.46,5.0,Calm,Calm,-,0.05,Rain,Light Rain,0,2012-12-15 12:54:00
7:29 AM,42.8,42.8,100,29.46,5.0,Calm,Calm,-,0.00,,Overcast,0,2012-12-15 13:29:00
7:50 AM,41.0,41.0,100,29.47,1.5,West,3.5,-,0.00,,Partly Cloudy,270,2012-12-15 13:50:00
7:54 AM,41.0,41.0,100,29.48,3.0,West,3.5,-,0.00,,Scattered Clouds,270,2012-12-15 13:54:00
8:50 AM,42.8,42.8,100,29.50,7.0,West,6.9,-,N/A,,Overcast,270,2012-12-15 14:50:00
8:54 AM,43.0,42.1,97,29.51,8.0,West,6.9,-,N/A,,Overcast,280,2012-12-15 14:54:00
9:19 AM,44.6,42.8,93,29.51,8.0,WNW,5.8,-,N/A,,Mostly Cloudy,300,2012-12-15 15:19:00
9:31 AM,44.6,42.8,93,29.52,9.0,West,8.1,-,N/A,,Mostly Cloudy,280,2012-12-15 15:31:00
9:54 AM,45.0,42.1,90,29.55,10.0,WNW,11.5,-,N/A,,Overcast,290,2012-12-15 15:54:00
10:05 AM,44.6,42.8,93,29.54,10.0,WNW,12.7,20.7,N/A,,Overcast,290,2012-12-15 16:05:00
10:54 AM,46.0,42.1,86,29.57,10.0,NW,16.1,-,N/A,,Overcast,310,2012-12-15 16:54:00
11:54 AM,43.0,39.0,86,29.58,8.0,NW,17.3,-,N/A,,Overcast,310,2012-12-15 17:54:00
12:54 PM,42.1,37.0,82,29.58,7.0,NW,15.0,-,N/A,,Overcast,320,2012-12-15 18:54:00
1:54 PM,41.0,36.0,82,29.58,6.0,NW,12.7,-,N/A,,Haze,320,2012-12-15 19:54:00
2:54 PM,41.0,35.1,79,29.62,6.0,NW,11.5,-,N/A,,Haze,310,2012-12-15 20:54:00
3:54 PM,41.0,35.1,79,29.68,6.0,NW,11.5,-,N/A,,Haze,310,2012-12-15 21:54:00
4:54 PM,39.9,35.1,83,29.71,6.0,WNW,13.8,-,N/A,,Haze,300,2012-12-15 22:54:00
5:54 PM,39.0,33.1,79,29.73,6.0,WNW,12.7,-,N/A,,Haze,300,2012-12-15 23:54:00
6:40 PM,37.4,33.8,87,29.70,7.0,NW,10.4,-,N/A,,Overcast,320,2012-12-16 00:40:00
6:54 PM,37.9,33.1,83,29.72,6.0,NW,8.1,-,N/A,,Haze,310,2012-12-16 00:54:00
7:09 PM,37.4,32.0,81,29.71,6.0,NW,11.5,-,N/A,,Haze,310,2012-12-16 01:09:00
7:54 PM,36.0,32.0,86,29.74,5.0,WNW,9.2,-,N/A,,Partly Cloudy,300,2012-12-16 01:54:00
8:13 PM,35.6,32.0,87,29.72,5.0,NW,5.8,-,N/A,,Mostly Cloudy,310,2012-12-16 02:13:00
8:54 PM,37.0,32.0,82,29.74,5.0,WNW,4.6,-,N/A,,Haze,290,2012-12-16 02:54:00
9:29 PM,35.6,30.2,81,29.73,6.0,NW,9.2,-,N/A,,Haze,310,2012-12-16 03:29:00
9:54 PM,35.1,30.0,82,29.75,6.0,NW,6.9,-,N/A,,Haze,310,2012-12-16 03:54:00
10:54 PM,32.0,28.0,85,29.75,6.0,NNW,5.8,-,N/A,,Clear,340,2012-12-16 04:54:00
11:24 PM,33.8,28.4,81,29.75,6.0,NW,9.2,-,N/A,,Mostly Cloudy,320,2012-12-16 05:24:00
11:46 PM,33.8,30.2,87,29.74,6.0,NNW,10.4,-,N/A,,Overcast,330,2012-12-16 05:46:00
11:54 PM,33.1,30.0,89,29.77,6.0,NW,8.1,-,N/A,,Overcast,320,2012-12-16 05:54:00